Airfield :
LOGIN :

Register | Disclaimer

   EN    FR    IT 

 










Legend :    VFR   Marginal VFR   IFR   Intensive IFR   Very Intensive IFR
Visi :
Ceiling :
>= 8 km
>= 3000ft
5 to 8 km
1000 to 3000 ft
1500m to 5 km
500 to 1000 ft
800 to 1500m
200 to 500 ft
< 800m
< 200 ft
Symbols :   Thunderstorms  Fog  Heavy snow  Heavy precipitations  Wind > 20 kt
SIGMETs :     Misc.  Thunderstorms  Icing  Turbulence  Mountain Waves  Volcanic Ashes






- Airport Elevation : 336 ft
- IATA code : GCI


EGJB - Guernsey

CURRENT METAR :
  • 070920Z 15009KT CAVOK 27/12 Q1017

EXPIRED METARs :
  • 070850Z 13008KT CAVOK 26/12 Q1017
  • 070820Z 12008KT CAVOK 26/12 Q1017
  • 070750Z 06005KT CAVOK 24/14 Q1017
  • 070720Z 09008KT CAVOK 23/12 Q1017
  • 070650Z 07007KT CAVOK 21/14 Q1016

TAF TAF EGJB
Valid from the 07 at 09:00 until the 07 at 18:00 UTC


070756Z 0709/0718 06007KT CAVOK
ATIS : +44 1481 238 957



MET'MAP, your aeronautical weather chart ! - Copyright ORBIFLY December 2007 - Disclaimer

ORBIFLY MET'MAP TEAM :

Programming & Development : Alexandra Zaïnal
Concept & original design : Baudouin d'Aumeries
Assistance for programming : Marc-Olivier Méhu
Technical & hardware support : Manuel Goepfert

Contact : metmap@orbifly.com




SOURCES & CREDITS :

   NOAA